sensor_id;sensor_type;location;lat;lon;timestamp;pressure;altitude;pressure_sealevel;temperature;humidity
13952;BME280;39535;52.192;9.886;2023-10-19T00:00:30;98906.88;;;9.00;94.64
13952;BME280;39535;52.192;9.886;2023-10-19T00:02:59;98909.53;;;8.99;94.85
13952;BME280;39535;52.192;9.886;2023-10-19T00:05:27;98884.47;;;8.96;95.05
13952;BME280;39535;52.192;9.886;2023-10-19T00:07:56;98881.13;;;8.69;95.80
13952;BME280;39535;52.192;9.886;2023-10-19T00:10:22;98852.91;;;8.82;96.82
13952;BME280;39535;52.192;9.886;2023-10-19T00:12:51;98853.59;;;8.87;96.65
13952;BME280;39535;52.192;9.886;2023-10-19T00:15:25;98843.41;;;8.81;96.97
13952;BME280;39535;52.192;9.886;2023-10-19T00:17:56;98830.91;;;8.90;96.88
13952;BME280;39535;52.192;9.886;2023-10-19T00:20:21;98823.34;;;8.61;98.07
13952;BME280;39535;52.192;9.886;2023-10-19T00:23:15;98782.69;;;8.58;99.98
13952;BME280;39535;52.192;9.886;2023-10-19T00:25:43;98789.63;;;8.81;98.91
13952;BME280;39535;52.192;9.886;2023-10-19T00:28:16;98800.72;;;8.86;98.42
13952;BME280;39535;52.192;9.886;2023-10-19T00:30:43;98794.63;;;8.86;98.14
13952;BME280;39535;52.192;9.886;2023-10-19T00:33:10;98794.63;;;8.86;98.29
13952;BME280;39535;52.192;9.886;2023-10-19T00:35:42;98789.38;;;8.87;97.98
13952;BME280;39535;52.192;9.886;2023-10-19T00:38:23;98791.13;;;8.87;98.21
13952;BME280;39535;52.192;9.886;2023-10-19T00:41:07;98793.75;;;8.87;98.02
13952;BME280;39535;52.192;9.886;2023-10-19T00:43:38;98791.81;;;8.92;97.32
13952;BME280;39535;52.192;9.886;2023-10-19T00:46:09;98781.00;;;8.57;98.93
13952;BME280;39535;52.192;9.886;2023-10-19T00:48:40;98743.28;;;8.45;100.00
13952;BME280;39535;52.192;9.886;2023-10-19T00:51:08;98725.25;;;8.41;100.00
13952;BME280;39535;52.192;9.886;2023-10-19T00:53:40;98713.97;;;8.40;100.00
13952;BME280;39535;52.192;9.886;2023-10-19T00:56:08;98701.06;;;8.39;100.00
13952;BME280;39535;52.192;9.886;2023-10-19T00:58:37;98691.50;;;8.39;100.00
13952;BME280;39535;52.192;9.886;2023-10-19T01:01:06;98685.47;;;8.39;100.00
13952;BME280;39535;52.192;9.886;2023-10-19T01:03:34;98673.41;;;8.36;100.00
13952;BME280;39535;52.192;9.886;2023-10-19T01:06:04;98670.88;;;8.34;100.00
13952;BME280;39535;52.192;9.886;2023-10-19T01:08:36;98662.31;;;8.32;100.00
13952;BME280;39535;52.192;9.886;2023-10-19T01:11:08;98673.28;;;9.05;100.00
13952;BME280;39535;52.192;9.886;2023-10-19T01:13:37;98732.47;;;9.22;98.10
13952;BME280;39535;52.192;9.886;2023-10-19T01:16:03;98760.88;;;9.28;96.68
13952;BME280;39535;52.192;9.886;2023-10-19T01:18:30;98781.50;;;9.33;95.85
13952;BME280;39535;52.192;9.886;2023-10-19T01:20:58;98793.63;;;9.34;95.50
13952;BME280;39535;52.192;9.886;2023-10-19T01:23:29;98803.06;;;9.37;95.17
13952;BME280;39535;52.192;9.886;2023-10-19T01:25:56;98806.50;;;9.37;94.89
13952;BME280;39535;52.192;9.886;2023-10-19T01:28:32;98808.28;;;9.37;94.75
13952;BME280;39535;52.192;9.886;2023-10-19T01:31:09;98817.06;;;9.34;94.59
13952;BME280;39535;52.192;9.886;2023-10-19T01:33:40;98811.91;;;9.32;94.92
13952;BME280;39535;52.192;9.886;2023-10-19T01:36:09;98809.31;;;9.32;94.84
13952;BME280;39535;52.192;9.886;2023-10-19T01:38:41;98804.94;;;9.33;94.13
13952;BME280;39535;52.192;9.886;2023-10-19T01:41:08;98813.53;;;9.35;94.11
13952;BME280;39535;52.192;9.886;2023-10-19T01:43:39;98806.66;;;9.34;94.29
13952;BME280;39535;52.192;9.886;2023-10-19T01:46:06;98804.94;;;9.33;94.11
13952;BME280;39535;52.192;9.886;2023-10-19T01:48:37;98794.56;;;9.31;94.15
13952;BME280;39535;52.192;9.886;2023-10-19T01:51:04;98771.72;;;8.95;95.84
13952;BME280;39535;52.192;9.886;2023-10-19T01:53:31;98744.31;;;8.87;97.25
13952;BME280;39535;52.192;9.886;2023-10-19T01:55:58;98710.69;;;8.82;98.19
13952;BME280;39535;52.192;9.886;2023-10-19T01:58:25;98693.56;;;8.77;98.78
13952;BME280;39535;52.192;9.886;2023-10-19T02:00:50;98670.97;;;8.77;99.08
13952;BME280;39535;52.192;9.886;2023-10-19T02:03:19;98662.63;;;8.69;99.42
13952;BME280;39535;52.192;9.886;2023-10-19T02:05:46;98648.84;;;8.67;100.00
13952;BME280;39535;52.192;9.886;2023-10-19T02:08:14;98618.13;;;8.32;100.00
13952;BME280;39535;52.192;9.886;2023-10-19T02:10:46;98590.72;;;8.24;100.00
13952;BME280;39535;52.192;9.886;2023-10-19T02:13:14;98561.53;;;8.17;100.00
13952;BME280;39535;52.192;9.886;2023-10-19T02:15:42;98544.22;;;8.16;100.00
13952;BME280;39535;52.192;9.886;2023-10-19T02:18:09;98533.78;;;8.18;100.00
13952;BME280;39535;52.192;9.886;2023-10-19T02:20:35;98519.00;;;8.18;100.00
13952;BME280;39535;52.192;9.886;2023-10-19T02:23:05;98522.53;;;8.17;100.00
13952;BME280;39535;52.192;9.886;2023-10-19T02:25:32;98519.88;;;8.19;100.00
13952;BME280;39535;52.192;9.886;2023-10-19T02:28:03;98518.22;;;8.16;100.00
13952;BME280;39535;52.192;9.886;2023-10-19T02:30:30;98506.94;;;8.17;100.00
13952;BME280;39535;52.192;9.886;2023-10-19T02:32:59;98507.91;;;8.14;100.00
13952;BME280;39535;52.192;9.886;2023-10-19T02:35:25;98495.78;;;8.15;100.00
13952;BME280;39535;52.192;9.886;2023-10-19T02:37:52;98492.31;;;8.14;100.00
13952;BME280;39535;52.192;9.886;2023-10-19T02:40:19;98496.66;;;8.14;100.00
13952;BME280;39535;52.192;9.886;2023-10-19T02:42:45;98493.09;;;8.16;100.00
13952;BME280;39535;52.192;9.886;2023-10-19T02:45:14;98488.09;;;8.12;100.00
13952;BME280;39535;52.192;9.886;2023-10-19T02:47:43;98484.59;;;8.13;100.00
13952;BME280;39535;52.192;9.886;2023-10-19T02:50:10;98485.63;;;8.09;100.00
13952;BME280;39535;52.192;9.886;2023-10-19T02:52:38;98476.84;;;8.11;100.00
13952;BME280;39535;52.192;9.886;2023-10-19T02:55:07;98475.22;;;8.09;100.00
13952;BME280;39535;52.192;9.886;2023-10-19T02:57:32;98467.44;;;8.09;100.00
13952;BME280;39535;52.192;9.886;2023-10-19T02:59:59;98468.28;;;8.09;100.00
13952;BME280;39535;52.192;9.886;2023-10-19T03:02:25;98459.50;;;8.12;100.00
13952;BME280;39535;52.192;9.886;2023-10-19T03:04:54;98469.00;;;8.13;100.00
13952;BME280;39535;52.192;9.886;2023-10-19T03:07:20;98471.50;;;8.14;100.00
13952;BME280;39535;52.192;9.886;2023-10-19T03:09:46;98469.84;;;8.13;100.00
13952;BME280;39535;52.192;9.886;2023-10-19T03:12:19;98472.44;;;8.13;100.00
13952;BME280;39535;52.192;9.886;2023-10-19T03:14:46;98462.03;;;8.13;100.00
13952;BME280;39535;52.192;9.886;2023-10-19T03:17:13;98462.94;;;8.12;100.00
13952;BME280;39535;52.192;9.886;2023-10-19T03:19:39;98465.47;;;8.14;100.00
13952;BME280;39535;52.192;9.886;2023-10-19T03:22:06;98462.94;;;8.12;100.00
13952;BME280;39535;52.192;9.886;2023-10-19T03:24:34;98452.53;;;8.12;100.00
13952;BME280;39535;52.192;9.886;2023-10-19T03:27:07;98449.88;;;8.14;100.00
13952;BME280;39535;52.192;9.886;2023-10-19T03:29:38;98450.72;;;8.14;100.00
13952;BME280;39535;52.192;9.886;2023-10-19T03:32:05;98444.84;;;8.11;100.00
13952;BME280;39535;52.192;9.886;2023-10-19T03:34:32;98441.25;;;8.13;100.00
13952;BME280;39535;52.192;9.886;2023-10-19T03:36:58;98440.41;;;8.13;100.00
13952;BME280;39535;52.192;9.886;2023-10-19T03:39:32;98431.69;;;8.14;100.00
13952;BME280;39535;52.192;9.886;2023-10-19T03:42:01;98430.91;;;8.12;100.00
13952;BME280;39535;52.192;9.886;2023-10-19T03:44:27;98437.09;;;8.09;100.00
13952;BME280;39535;52.192;9.886;2023-10-19T03:47:04;98425.78;;;8.10;100.00
13952;BME280;39535;52.192;9.886;2023-10-19T03:49:36;98421.34;;;8.12;100.00
13952;BME280;39535;52.192;9.886;2023-10-19T03:52:04;98418.69;;;8.14;100.00
13952;BME280;39535;52.192;9.886;2023-10-19T03:54:46;98406.53;;;8.14;100.00
13952;BME280;39535;52.192;9.886;2023-10-19T03:57:15;98416.88;;;8.16;100.00
13952;BME280;39535;52.192;9.886;2023-10-19T03:59:45;98410.00;;;8.15;100.00
13952;BME280;39535;52.192;9.886;2023-10-19T04:02:12;98402.13;;;8.16;100.00
13952;BME280;39535;52.192;9.886;2023-10-19T04:04:40;98406.38;;;8.19;100.00
13952;BME280;39535;52.192;9.886;2023-10-19T04:07:08;98404.81;;;8.15;100.00
13952;BME280;39535;52.192;9.886;2023-10-19T04:09:43;98401.28;;;8.16;100.00
13952;BME280;39535;52.192;9.886;2023-10-19T04:12:27;98389.06;;;8.18;100.00
13952;BME280;39535;52.192;9.886;2023-10-19T04:14:55;98382.22;;;8.17;100.00
13952;BME280;39535;52.192;9.886;2023-10-19T04:17:22;98383.94;;;8.16;100.00
13952;BME280;39535;52.192;9.886;2023-10-19T04:19:49;98383.31;;;8.11;100.00
13952;BME280;39535;52.192;9.886;2023-10-19T04:22:16;98379.72;;;8.14;100.00
13952;BME280;39535;52.192;9.886;2023-10-19T04:24:48;98374.47;;;8.15;100.00
13952;BME280;39535;52.192;9.886;2023-10-19T04:27:14;98381.47;;;8.34;100.00
13952;BME280;39535;52.192;9.886;2023-10-19T04:29:42;98391.47;;;8.45;100.00
13952;BME280;39535;52.192;9.886;2023-10-19T04:32:10;98404.31;;;8.48;100.00
13952;BME280;39535;52.192;9.886;2023-10-19T04:34:39;98401.81;;;8.24;100.00
13952;BME280;39535;52.192;9.886;2023-10-19T04:37:06;98408.47;;;8.52;100.00
13952;BME280;39535;52.192;9.886;2023-10-19T04:39:33;98417.75;;;8.58;100.00
13952;BME280;39535;52.192;9.886;2023-10-19T04:42:01;98431.41;;;8.63;100.00
13952;BME280;39535;52.192;9.886;2023-10-19T04:44:28;98439.94;;;8.66;100.00
13952;BME280;39535;52.192;9.886;2023-10-19T04:46:57;98432.28;;;8.43;100.00
13952;BME280;39535;52.192;9.886;2023-10-19T04:49:23;98435.84;;;8.61;100.00
13952;BME280;39535;52.192;9.886;2023-10-19T04:51:50;98437.75;;;8.35;100.00
13952;BME280;39535;52.192;9.886;2023-10-19T04:54:16;98427.53;;;8.52;100.00
13952;BME280;39535;52.192;9.886;2023-10-19T04:56:43;98428.09;;;8.59;100.00
13952;BME280;39535;52.192;9.886;2023-10-19T04:59:09;98428.22;;;8.56;100.00
13952;BME280;39535;52.192;9.886;2023-10-19T05:01:36;98431.47;;;8.61;100.00
13952;BME280;39535;52.192;9.886;2023-10-19T05:04:04;98414.66;;;8.49;100.00
13952;BME280;39535;52.192;9.886;2023-10-19T05:06:30;98417.97;;;8.53;100.00
13952;BME280;39535;52.192;9.886;2023-10-19T05:08:57;98401.16;;;8.60;100.00
13952;BME280;39535;52.192;9.886;2023-10-19T05:11:23;98413.16;;;8.64;100.00
13952;BME280;39535;52.192;9.886;2023-10-19T05:13:50;98423.56;;;8.64;100.00
13952;BME280;39535;52.192;9.886;2023-10-19T05:16:16;98417.44;;;8.65;100.00
13952;BME280;39535;52.192;9.886;2023-10-19T05:18:42;98417.38;;;8.67;100.00
13952;BME280;39535;52.192;9.886;2023-10-19T05:21:10;98420.75;;;8.69;100.00
13952;BME280;39535;52.192;9.886;2023-10-19T05:23:37;98427.56;;;8.71;100.00
13952;BME280;39535;52.192;9.886;2023-10-19T05:26:04;98424.66;;;8.59;100.00
13952;BME280;39535;52.192;9.886;2023-10-19T05:28:32;98430.56;;;8.42;100.00
13952;BME280;39535;52.192;9.886;2023-10-19T05:30:58;98398.38;;;8.24;100.00
13952;BME280;39535;52.192;9.886;2023-10-19T05:33:27;98372.59;;;8.19;100.00
13952;BME280;39535;52.192;9.886;2023-10-19T05:35:54;98374.88;;;8.47;100.00
13952;BME280;39535;52.192;9.886;2023-10-19T05:38:22;98388.56;;;8.30;100.00
13952;BME280;39535;52.192;9.886;2023-10-19T05:40:49;98387.00;;;8.26;100.00
13952;BME280;39535;52.192;9.886;2023-10-19T05:43:17;98370.94;;;8.16;100.00
13952;BME280;39535;52.192;9.886;2023-10-19T05:45:44;98361.47;;;8.15;100.00
13952;BME280;39535;52.192;9.886;2023-10-19T05:48:15;98355.44;;;8.15;100.00
13952;BME280;39535;52.192;9.886;2023-10-19T05:50:41;98353.69;;;8.15;100.00
13952;BME280;39535;52.192;9.886;2023-10-19T05:53:08;98348.47;;;8.15;100.00
13952;BME280;39535;52.192;9.886;2023-10-19T05:55:36;98346.72;;;8.16;100.00
13952;BME280;39535;52.192;9.886;2023-10-19T05:58:05;98352.91;;;8.13;100.00
13952;BME280;39535;52.192;9.886;2023-10-19T06:00:32;98347.56;;;8.16;100.00
13952;BME280;39535;52.192;9.886;2023-10-19T06:03:00;98351.91;;;8.16;100.00
13952;BME280;39535;52.192;9.886;2023-10-19T06:05:27;98360.50;;;8.18;100.00
13952;BME280;39535;52.192;9.886;2023-10-19T06:07:55;98355.28;;;8.18;100.00
13952;BME280;39535;52.192;9.886;2023-10-19T06:10:21;98352.75;;;8.16;100.00
13952;BME280;39535;52.192;9.886;2023-10-19T06:12:50;98360.56;;;8.16;100.00
13952;BME280;39535;52.192;9.886;2023-10-19T06:15:20;98362.25;;;8.18;100.00
13952;BME280;39535;52.192;9.886;2023-10-19T06:17:49;98351.03;;;8.17;100.00
13952;BME280;39535;52.192;9.886;2023-10-19T06:20:16;98351.91;;;8.16;100.00
13952;BME280;39535;52.192;9.886;2023-10-19T06:22:52;98357.84;;;8.20;100.00
13952;BME280;39535;52.192;9.886;2023-10-19T06:25:19;98355.19;;;8.21;100.00
13952;BME280;39535;52.192;9.886;2023-10-19T06:27:47;98353.41;;;8.22;100.00
13952;BME280;39535;52.192;9.886;2023-10-19T06:30:16;98356.00;;;8.22;100.00
13952;BME280;39535;52.192;9.886;2023-10-19T06:32:46;98345.63;;;8.22;100.00
13952;BME280;39535;52.192;9.886;2023-10-19T06:35:13;98334.44;;;8.20;100.00
13952;BME280;39535;52.192;9.886;2023-10-19T06:37:39;98330.94;;;8.21;100.00
13952;BME280;39535;52.192;9.886;2023-10-19T06:40:07;98329.19;;;8.21;100.00
13952;BME280;39535;52.192;9.886;2023-10-19T06:42:34;98337.75;;;8.23;100.00
13952;BME280;39535;52.192;9.886;2023-10-19T06:45:01;98329.97;;;8.23;100.00
13952;BME280;39535;52.192;9.886;2023-10-19T06:47:28;98329.91;;;8.25;100.00
13952;BME280;39535;52.192;9.886;2023-10-19T06:49:56;98328.09;;;8.27;100.00
13952;BME280;39535;52.192;9.886;2023-10-19T06:52:22;98325.31;;;8.30;100.00
13952;BME280;39535;52.192;9.886;2023-10-19T06:54:49;98317.59;;;8.28;100.00
13952;BME280;39535;52.192;9.886;2023-10-19T06:57:15;98322.00;;;8.26;100.00
13952;BME280;39535;52.192;9.886;2023-10-19T06:59:42;98328.97;;;8.26;100.00
13952;BME280;39535;52.192;9.886;2023-10-19T07:02:08;98328.97;;;8.26;100.00
13952;BME280;39535;52.192;9.886;2023-10-19T07:04:39;98321.13;;;8.27;100.00
13952;BME280;39535;52.192;9.886;2023-10-19T07:07:05;98327.22;;;8.26;100.00
13952;BME280;39535;52.192;9.886;2023-10-19T07:09:33;98331.50;;;8.27;100.00
13952;BME280;39535;52.192;9.886;2023-10-19T07:12:00;98335.94;;;8.25;100.00
13952;BME280;39535;52.192;9.886;2023-10-19T07:14:26;98334.94;;;8.28;100.00
13952;BME280;39535;52.192;9.886;2023-10-19T07:16:52;98324.63;;;8.26;100.00
13952;BME280;39535;52.192;9.886;2023-10-19T07:19:19;98328.13;;;8.25;100.00
13952;BME280;39535;52.192;9.886;2023-10-19T07:21:47;98329.03;;;8.24;100.00
13952;BME280;39535;52.192;9.886;2023-10-19T07:24:18;98326.59;;;8.21;100.00
13952;BME280;39535;52.192;9.886;2023-10-19T07:26:49;98328.19;;;8.24;100.00
13952;BME280;39535;52.192;9.886;2023-10-19T07:29:28;98335.28;;;8.20;100.00
13952;BME280;39535;52.192;9.886;2023-10-19T07:31:55;98331.84;;;8.20;100.00
13952;BME280;39535;52.192;9.886;2023-10-19T07:34:23;98324.09;;;8.18;100.00
13952;BME280;39535;52.192;9.886;2023-10-19T07:36:54;98321.38;;;8.21;100.00
13952;BME280;39535;52.192;9.886;2023-10-19T07:39:24;98314.31;;;8.25;100.00
13952;BME280;39535;52.192;9.886;2023-10-19T07:41:51;98325.47;;;8.27;100.00
13952;BME280;39535;52.192;9.886;2023-10-19T07:44:18;98322.88;;;8.27;100.00
13952;BME280;39535;52.192;9.886;2023-10-19T07:46:44;98327.22;;;8.26;100.00
13952;BME280;39535;52.192;9.886;2023-10-19T07:49:11;98327.88;;;8.31;100.00
13952;BME280;39535;52.192;9.886;2023-10-19T07:51:44;98338.16;;;8.34;100.00
13952;BME280;39535;52.192;9.886;2023-10-19T07:54:12;98340.59;;;8.38;100.00
13952;BME280;39535;52.192;9.886;2023-10-19T07:56:39;98344.97;;;8.37;100.00
13952;BME280;39535;52.192;9.886;2023-10-19T07:59:05;98355.19;;;8.40;100.00
13952;BME280;39535;52.192;9.886;2023-10-19T08:01:33;98356.13;;;8.39;100.00
13952;BME280;39535;52.192;9.886;2023-10-19T08:03:59;98364.69;;;8.62;100.00
13952;BME280;39535;52.192;9.886;2023-10-19T08:06:26;98365.06;;;8.73;100.00
13952;BME280;39535;52.192;9.886;2023-10-19T08:08:52;98379.28;;;8.85;100.00
13952;BME280;39535;52.192;9.886;2023-10-19T08:11:21;98386.81;;;8.91;100.00
13952;BME280;39535;52.192;9.886;2023-10-19T08:13:48;98392.66;;;8.96;100.00
13952;BME280;39535;52.192;9.886;2023-10-19T08:16:14;98395.97;;;8.60;100.00
13952;BME280;39535;52.192;9.886;2023-10-19T08:18:41;98384.00;;;8.56;100.00
13952;BME280;39535;52.192;9.886;2023-10-19T08:21:08;98369.34;;;8.55;100.00
13952;BME280;39535;52.192;9.886;2023-10-19T08:23:34;98360.69;;;8.54;100.00
13952;BME280;39535;52.192;9.886;2023-10-19T08:26:03;98356.16;;;8.79;100.00
13952;BME280;39535;52.192;9.886;2023-10-19T08:28:32;98371.13;;;8.92;100.00
13952;BME280;39535;52.192;9.886;2023-10-19T08:30:58;98387.88;;;9.06;100.00
13952;BME280;39535;52.192;9.886;2023-10-19T08:33:27;98402.50;;;9.08;100.00
13952;BME280;39535;52.192;9.886;2023-10-19T08:35:55;98407.56;;;9.11;100.00
13952;BME280;39535;52.192;9.886;2023-10-19T08:38:22;98413.53;;;9.13;100.00
13952;BME280;39535;52.192;9.886;2023-10-19T08:40:49;98428.19;;;9.16;100.00
13952;BME280;39535;52.192;9.886;2023-10-19T08:43:16;98433.09;;;9.22;100.00
13952;BME280;39535;52.192;9.886;2023-10-19T08:45:45;98446.91;;;9.24;100.00
13952;BME280;39535;52.192;9.886;2023-10-19T08:48:12;98452.03;;;9.26;100.00
13952;BME280;39535;52.192;9.886;2023-10-19T08:50:39;98455.25;;;9.31;100.00
13952;BME280;39535;52.192;9.886;2023-10-19T08:53:07;98454.38;;;9.32;100.00
13952;BME280;39535;52.192;9.886;2023-10-19T08:55:35;98467.22;;;9.35;100.00
13952;BME280;39535;52.192;9.886;2023-10-19T08:58:02;98469.69;;;9.38;100.00
13952;BME280;39535;52.192;9.886;2023-10-19T09:00:43;98446.75;;;9.08;100.00
13952;BME280;39535;52.192;9.886;2023-10-19T09:03:13;98406.28;;;9.01;100.00
13952;BME280;39535;52.192;9.886;2023-10-19T09:05:42;98385.53;;;9.00;100.00
13952;BME280;39535;52.192;9.886;2023-10-19T09:08:09;98389.81;;;9.39;100.00
13952;BME280;39535;52.192;9.886;2023-10-19T09:10:40;98404.94;;;9.49;100.00
13952;BME280;39535;52.192;9.886;2023-10-19T09:13:08;98404.66;;;9.56;100.00
13952;BME280;39535;52.192;9.886;2023-10-19T09:15:35;98421.91;;;9.58;100.00
13952;BME280;39535;52.192;9.886;2023-10-19T09:18:13;98410.34;;;9.64;100.00
13952;BME280;39535;52.192;9.886;2023-10-19T09:20:41;98419.69;;;9.68;100.00
13952;BME280;39535;52.192;9.886;2023-10-19T09:23:18;98439.53;;;9.70;100.00
13952;BME280;39535;52.192;9.886;2023-10-19T09:25:44;98454.28;;;9.71;100.00
13952;BME280;39535;52.192;9.886;2023-10-19T09:28:11;98456.78;;;9.73;100.00
13952;BME280;39535;52.192;9.886;2023-10-19T09:30:39;98463.69;;;9.74;100.00
13952;BME280;39535;52.192;9.886;2023-10-19T09:33:06;98455.03;;;9.73;100.00
13952;BME280;39535;52.192;9.886;2023-10-19T09:35:36;98450.44;;;9.79;100.00
13952;BME280;39535;52.192;9.886;2023-10-19T09:38:04;98451.13;;;9.82;100.00
13952;BME280;39535;52.192;9.886;2023-10-19T09:40:31;98453.31;;;9.91;100.00
13952;BME280;39535;52.192;9.886;2023-10-19T09:43:02;98455.63;;;9.98;100.00
13952;BME280;39535;52.192;9.886;2023-10-19T09:45:32;98453.63;;;10.03;100.00
13952;BME280;39535;52.192;9.886;2023-10-19T09:48:05;98472.63;;;10.05;100.00
13952;BME280;39535;52.192;9.886;2023-10-19T09:50:32;98471.66;;;10.07;100.00
13952;BME280;39535;52.192;9.886;2023-10-19T09:53:01;98479.47;;;10.07;100.00
13952;BME280;39535;52.192;9.886;2023-10-19T09:55:32;98474.25;;;10.07;100.00
13952;BME280;39535;52.192;9.886;2023-10-19T09:58:03;98491.69;;;10.07;100.00
13952;BME280;39535;52.192;9.886;2023-10-19T10:00:33;98473.44;;;10.07;100.00
13952;BME280;39535;52.192;9.886;2023-10-19T10:03:00;98477.84;;;10.05;100.00
13952;BME280;39535;52.192;9.886;2023-10-19T10:05:46;98482.84;;;10.09;100.00
13952;BME280;39535;52.192;9.886;2023-10-19T10:08:35;98470.53;;;10.13;100.00
13952;BME280;39535;52.192;9.886;2023-10-19T10:11:22;98474.66;;;10.17;100.00
13952;BME280;39535;52.192;9.886;2023-10-19T10:13:50;98472.97;;;10.16;100.00
13952;BME280;39535;52.192;9.886;2023-10-19T10:16:19;98469.28;;;10.20;100.00
13952;BME280;39535;52.192;9.886;2023-10-19T10:18:47;98459.47;;;10.25;100.00
13952;BME280;39535;52.192;9.886;2023-10-19T10:21:16;98466.09;;;10.32;100.00
13952;BME280;39535;52.192;9.886;2023-10-19T10:23:46;98468.41;;;10.39;100.00
13952;BME280;39535;52.192;9.886;2023-10-19T10:26:14;98468.25;;;10.42;100.00
13952;BME280;39535;52.192;9.886;2023-10-19T10:28:45;98465.56;;;10.43;100.00
13952;BME280;39535;52.192;9.886;2023-10-19T10:31:14;98456.66;;;10.47;100.00
13952;BME280;39535;52.192;9.886;2023-10-19T10:33:43;98449.53;;;10.51;100.00
13952;BME280;39535;52.192;9.886;2023-10-19T10:36:14;98449.53;;;10.51;100.00
13952;BME280;39535;52.192;9.886;2023-10-19T10:38:42;98434.47;;;10.56;100.00
13952;BME280;39535;52.192;9.886;2023-10-19T10:44:47;98442.41;;;10.55;100.00
13952;BME280;39535;52.192;9.886;2023-10-19T10:47:23;98436.19;;;10.57;100.00
13952;BME280;39535;52.192;9.886;2023-10-19T10:49:52;98437.00;;;10.58;100.00
13952;BME280;39535;52.192;9.886;2023-10-19T10:52:26;98445.53;;;10.61;100.00
13952;BME280;39535;52.192;9.886;2023-10-19T10:58:14;98435.03;;;10.63;100.00
13952;BME280;39535;52.192;9.886;2023-10-19T11:00:46;98431.56;;;10.62;100.00
13952;BME280;39535;52.192;9.886;2023-10-19T11:03:19;98431.41;;;10.65;100.00
13952;BME280;39535;52.192;9.886;2023-10-19T11:05:49;98417.34;;;10.68;100.00
13952;BME280;39535;52.192;9.886;2023-10-19T11:08:20;98418.88;;;10.72;100.00
13952;BME280;39535;52.192;9.886;2023-10-19T11:10:53;98420.66;;;10.71;100.00
13952;BME280;39535;52.192;9.886;2023-10-19T11:13:23;98426.56;;;10.75;100.00
13952;BME280;39535;52.192;9.886;2023-10-19T11:15:52;98414.19;;;10.79;100.00
13952;BME280;39535;52.192;9.886;2023-10-19T11:18:29;98415.66;;;10.84;100.00
13952;BME280;39535;52.192;9.886;2023-10-19T11:20:56;98432.72;;;10.90;100.00
13952;BME280;39535;52.192;9.886;2023-10-19T11:23:35;98428.19;;;10.93;100.00
13952;BME280;39535;52.192;9.886;2023-10-19T11:26:02;98428.03;;;10.97;100.00
13952;BME280;39535;52.192;9.886;2023-10-19T11:28:30;98434.09;;;10.97;100.00
13952;BME280;39535;52.192;9.886;2023-10-19T11:31:14;98418.44;;;10.64;100.00
13952;BME280;39535;52.192;9.886;2023-10-19T11:33:53;98388.47;;;10.55;100.00
13952;BME280;39535;52.192;9.886;2023-10-19T11:36:21;98364.22;;;10.53;100.00
13952;BME280;39535;52.192;9.886;2023-10-19T11:38:51;98347.13;;;10.47;100.00
13952;BME280;39535;52.192;9.886;2023-10-19T11:41:18;98330.53;;;10.48;100.00
13952;BME280;39535;52.192;9.886;2023-10-19T11:43:45;98322.63;;;10.50;100.00
13952;BME280;39535;52.192;9.886;2023-10-19T11:46:15;98349.31;;;10.88;100.00
13952;BME280;39535;52.192;9.886;2023-10-19T11:48:43;98377.63;;;10.96;100.00
13952;BME280;39535;52.192;9.886;2023-10-19T11:51:10;98400.00;;;11.00;100.00
13952;BME280;39535;52.192;9.886;2023-10-19T11:53:38;98401.53;;;11.04;100.00
13952;BME280;39535;52.192;9.886;2023-10-19T11:56:06;98424.94;;;11.06;100.00
13952;BME280;39535;52.192;9.886;2023-10-19T11:58:33;98429.25;;;11.07;100.00
13952;BME280;39535;52.192;9.886;2023-10-19T12:01:01;98423.06;;;11.08;100.00
13952;BME280;39535;52.192;9.886;2023-10-19T12:03:29;98416.19;;;11.07;100.00
13952;BME280;39535;52.192;9.886;2023-10-19T12:05:56;98422.25;;;11.07;100.00
13952;BME280;39535;52.192;9.886;2023-10-19T12:08:22;98423.19;;;11.06;100.00
13952;BME280;39535;52.192;9.886;2023-10-19T12:10:50;98417.09;;;11.06;100.00
13952;BME280;39535;52.192;9.886;2023-10-19T12:13:17;98419.56;;;11.09;100.00
13952;BME280;39535;52.192;9.886;2023-10-19T12:15:43;98409.19;;;11.07;100.00
13952;BME280;39535;52.192;9.886;2023-10-19T12:18:17;98401.88;;;11.14;100.00
13952;BME280;39535;52.192;9.886;2023-10-19T12:20:45;98411.31;;;11.17;100.00
13952;BME280;39535;52.192;9.886;2023-10-19T12:23:12;98416.28;;;11.21;100.00
13952;BME280;39535;52.192;9.886;2023-10-19T12:25:39;98412.97;;;11.02;100.00
13952;BME280;39535;52.192;9.886;2023-10-19T12:28:07;98385.28;;;11.15;100.00
13952;BME280;39535;52.192;9.886;2023-10-19T12:30:39;98394.97;;;11.29;100.00
13952;BME280;39535;52.192;9.886;2023-10-19T12:33:06;98395.22;;;11.40;100.00
13952;BME280;39535;52.192;9.886;2023-10-19T12:35:36;98396.66;;;11.46;100.00
13952;BME280;39535;52.192;9.886;2023-10-19T12:38:12;98411.41;;;11.47;100.00
13952;BME280;39535;52.192;9.886;2023-10-19T12:40:45;98419.06;;;11.18;100.00
13952;BME280;39535;52.192;9.886;2023-10-19T12:43:12;98413.25;;;11.45;100.00
13952;BME280;39535;52.192;9.886;2023-10-19T12:45:37;98412.22;;;11.47;100.00
13952;BME280;39535;52.192;9.886;2023-10-19T12:48:05;98410.22;;;11.52;100.00
13952;BME280;39535;52.192;9.886;2023-10-19T12:50:32;98415.19;;;11.57;100.00
13952;BME280;39535;52.192;9.886;2023-10-19T12:52:58;98421.59;;;11.51;100.00
13952;BME280;39535;52.192;9.886;2023-10-19T12:55:26;98415.09;;;11.11;100.00
13952;BME280;39535;52.192;9.886;2023-10-19T12:57:53;98378.38;;;10.98;100.00
13952;BME280;39535;52.192;9.886;2023-10-19T13:00:21;98369.84;;;10.95;100.00
13952;BME280;39535;52.192;9.886;2023-10-19T13:02:51;98339.28;;;10.97;100.00
13952;BME280;39535;52.192;9.886;2023-10-19T13:05:24;98326.16;;;10.98;100.00
13952;BME280;39535;52.192;9.886;2023-10-19T13:07:51;98313.88;;;11.00;100.00
13952;BME280;39535;52.192;9.886;2023-10-19T13:10:18;98305.84;;;11.03;100.00
13952;BME280;39535;52.192;9.886;2023-10-19T13:12:46;98305.00;;;11.03;100.00
13952;BME280;39535;52.192;9.886;2023-10-19T13:15:12;98316.38;;;11.02;100.00